sensor_id;sensor_type;location;lat;lon;timestamp;pressure;altitude;pressure_sealevel;temperature;humidity
75157;BME280;63736;50.076;8.198;2023-10-19T00:00:46;97794.69;;;10.14;100.00
75157;BME280;63736;50.076;8.198;2023-10-19T00:03:14;97794.69;;;10.14;100.00
75157;BME280;63736;50.076;8.198;2023-10-19T00:05:40;97795.38;;;10.16;100.00
75157;BME280;63736;50.076;8.198;2023-10-19T00:08:10;97794.34;;;10.17;100.00
75157;BME280;63736;50.076;8.198;2023-10-19T00:10:48;97785.34;;;10.18;100.00
75157;BME280;63736;50.076;8.198;2023-10-19T00:13:27;97787.00;;;10.19;100.00
75157;BME280;63736;50.076;8.198;2023-10-19T00:15:53;97784.00;;;10.22;100.00
75157;BME280;63736;50.076;8.198;2023-10-19T00:18:19;97773.81;;;10.25;100.00
75157;BME280;63736;50.076;8.198;2023-10-19T00:20:49;97771.84;;;10.28;100.00
75157;BME280;63736;50.076;8.198;2023-10-19T00:23:22;97768.81;;;10.31;100.00
75157;BME280;63736;50.076;8.198;2023-10-19T00:25:56;97764.28;;;10.31;100.00
75157;BME280;63736;50.076;8.198;2023-10-19T00:28:22;97760.44;;;10.34;100.00
75157;BME280;63736;50.076;8.198;2023-10-19T00:30:48;97762.28;;;10.33;100.00
75157;BME280;63736;50.076;8.198;2023-10-19T00:33:15;97766.81;;;10.33;100.00
75157;BME280;63736;50.076;8.198;2023-10-19T00:35:45;97769.31;;;10.34;100.00
75157;BME280;63736;50.076;8.198;2023-10-19T00:38:37;97767.31;;;10.36;100.00
75157;BME280;63736;50.076;8.198;2023-10-19T00:41:17;97772.50;;;10.38;100.00
75157;BME280;63736;50.076;8.198;2023-10-19T00:43:52;97765.50;;;10.37;100.00
75157;BME280;63736;50.076;8.198;2023-10-19T00:46:36;97765.31;;;10.38;100.00
75157;BME280;63736;50.076;8.198;2023-10-19T00:49:09;97762.66;;;10.38;100.00
75157;BME280;63736;50.076;8.198;2023-10-19T00:51:39;97753.66;;;10.39;100.00
75157;BME280;63736;50.076;8.198;2023-10-19T00:54:18;97749.13;;;10.40;100.00
75157;BME280;63736;50.076;8.198;2023-10-19T00:56:52;97745.97;;;10.36;100.00
75157;BME280;63736;50.076;8.198;2023-10-19T00:59:21;97753.16;;;10.36;100.00
75157;BME280;63736;50.076;8.198;2023-10-19T01:01:51;97745.97;;;10.36;100.00
75157;BME280;63736;50.076;8.198;2023-10-19T01:04:22;97750.31;;;10.37;100.00
75157;BME280;63736;50.076;8.198;2023-10-19T01:06:49;97743.78;;;10.40;100.00
75157;BME280;63736;50.076;8.198;2023-10-19T01:09:30;97738.28;;;10.41;100.00
75157;BME280;63736;50.076;8.198;2023-10-19T01:12:01;97734.59;;;10.43;100.00
75157;BME280;63736;50.076;8.198;2023-10-19T01:14:43;97733.59;;;10.44;100.00
75157;BME280;63736;50.076;8.198;2023-10-19T01:17:08;97738.78;;;10.45;100.00
75157;BME280;63736;50.076;8.198;2023-10-19T01:19:36;97737.78;;;10.46;100.00
75157;BME280;63736;50.076;8.198;2023-10-19T01:22:01;97730.44;;;10.48;100.00
75157;BME280;63736;50.076;8.198;2023-10-19T01:24:29;97730.25;;;10.50;100.00
75157;BME280;63736;50.076;8.198;2023-10-19T01:27:07;97725.56;;;10.52;100.00
75157;BME280;63736;50.076;8.198;2023-10-19T01:32:55;97708.22;;;10.56;100.00
75157;BME280;63736;50.076;8.198;2023-10-19T01:35:22;97711.53;;;10.58;100.00
75157;BME280;63736;50.076;8.198;2023-10-19T01:37:47;97709.69;;;10.58;100.00
75157;BME280;63736;50.076;8.198;2023-10-19T01:40:13;97713.69;;;10.63;100.00
75157;BME280;63736;50.076;8.198;2023-10-19T01:42:45;97712.66;;;10.64;100.00
75157;BME280;63736;50.076;8.198;2023-10-19T01:45:10;97713.50;;;10.64;100.00
75157;BME280;63736;50.076;8.198;2023-10-19T01:47:36;97703.47;;;10.66;100.00
75157;BME280;63736;50.076;8.198;2023-10-19T01:50:02;97707.63;;;10.69;100.00
75157;BME280;63736;50.076;8.198;2023-10-19T01:52:28;97698.63;;;10.70;100.00
75157;BME280;63736;50.076;8.198;2023-10-19T01:54:53;97698.44;;;10.71;100.00
75157;BME280;63736;50.076;8.198;2023-10-19T01:57:25;97696.63;;;10.72;100.00
75157;BME280;63736;50.076;8.198;2023-10-19T01:59:51;97700.97;;;10.73;100.00
75157;BME280;63736;50.076;8.198;2023-10-19T02:02:16;97692.09;;;10.72;100.00
75157;BME280;63736;50.076;8.198;2023-10-19T02:04:41;97697.25;;;10.74;100.00
75157;BME280;63736;50.076;8.198;2023-10-19T02:07:07;97691.75;;;10.76;100.00
75157;BME280;63736;50.076;8.198;2023-10-19T02:09:38;97698.75;;;10.77;100.00
75157;BME280;63736;50.076;8.198;2023-10-19T02:12:04;97700.22;;;10.79;100.00
75157;BME280;63736;50.076;8.198;2023-10-19T02:14:31;97695.75;;;10.80;100.00
75157;BME280;63736;50.076;8.198;2023-10-19T02:16:59;97682.22;;;10.81;100.00
75157;BME280;63736;50.076;8.198;2023-10-19T02:19:26;97681.03;;;10.84;100.00
75157;BME280;63736;50.076;8.198;2023-10-19T02:21:55;97688.03;;;10.85;100.00
75157;BME280;63736;50.076;8.198;2023-10-19T02:24:21;97670.97;;;10.86;100.00
75157;BME280;63736;50.076;8.198;2023-10-19T02:26:50;97668.31;;;10.86;100.00
75157;BME280;63736;50.076;8.198;2023-10-19T02:29:19;97678.00;;;10.87;100.00
75157;BME280;63736;50.076;8.198;2023-10-19T02:31:45;97668.97;;;10.88;100.00
75157;BME280;63736;50.076;8.198;2023-10-19T02:34:12;97671.47;;;10.89;100.00
75157;BME280;63736;50.076;8.198;2023-10-19T02:36:41;97662.63;;;10.89;100.00
75157;BME280;63736;50.076;8.198;2023-10-19T02:39:08;97659.97;;;10.89;100.00
75157;BME280;63736;50.076;8.198;2023-10-19T02:41:35;97661.63;;;10.90;100.00
75157;BME280;63736;50.076;8.198;2023-10-19T02:44:02;97656.28;;;10.90;100.00
75157;BME280;63736;50.076;8.198;2023-10-19T02:46:31;97654.44;;;10.90;100.00
75157;BME280;63736;50.076;8.198;2023-10-19T02:49:03;97643.75;;;10.90;100.00
75157;BME280;63736;50.076;8.198;2023-10-19T02:51:32;97657.09;;;10.90;100.00
75157;BME280;63736;50.076;8.198;2023-10-19T02:53:58;97654.63;;;10.89;100.00
75157;BME280;63736;50.076;8.198;2023-10-19T02:56:27;97642.06;;;10.89;100.00
75157;BME280;63736;50.076;8.198;2023-10-19T02:58:55;97651.75;;;10.90;100.00
75157;BME280;63736;50.076;8.198;2023-10-19T03:01:27;97645.41;;;10.91;100.00
75157;BME280;63736;50.076;8.198;2023-10-19T03:03:55;97644.41;;;10.93;100.00
75157;BME280;63736;50.076;8.198;2023-10-19T03:06:26;97645.06;;;10.95;100.00
75157;BME280;63736;50.076;8.198;2023-10-19T03:08:56;97641.56;;;10.94;100.00
75157;BME280;63736;50.076;8.198;2023-10-19T03:11:30;97644.88;;;10.96;100.00
75157;BME280;63736;50.076;8.198;2023-10-19T03:13:58;97640.38;;;10.97;100.00
75157;BME280;63736;50.076;8.198;2023-10-19T03:16:23;97642.88;;;10.98;100.00
75157;BME280;63736;50.076;8.198;2023-10-19T03:18:50;97645.06;;;10.95;100.00
75157;BME280;63736;50.076;8.198;2023-10-19T03:21:16;97644.88;;;10.96;100.00
75157;BME280;63736;50.076;8.198;2023-10-19T03:23:42;97643.88;;;10.97;100.00
75157;BME280;63736;50.076;8.198;2023-10-19T03:26:08;97640.19;;;10.98;100.00
75157;BME280;63736;50.076;8.198;2023-10-19T03:28:52;97637.53;;;10.98;100.00
75157;BME280;63736;50.076;8.198;2023-10-19T03:31:23;97638.34;;;10.99;100.00
75157;BME280;63736;50.076;8.198;2023-10-19T03:33:52;97645.34;;;11.00;100.00
75157;BME280;63736;50.076;8.198;2023-10-19T03:36:22;97641.69;;;11.01;100.00
75157;BME280;63736;50.076;8.198;2023-10-19T03:38:49;97640.00;;;11.00;100.00
75157;BME280;63736;50.076;8.198;2023-10-19T03:41:19;97640.84;;;11.00;100.00
75157;BME280;63736;50.076;8.198;2023-10-19T03:43:53;97633.66;;;11.01;100.00
75157;BME280;63736;50.076;8.198;2023-10-19T03:46:19;97623.63;;;11.03;100.00
75157;BME280;63736;50.076;8.198;2023-10-19T03:48:54;97627.78;;;11.05;100.00
75157;BME280;63736;50.076;8.198;2023-10-19T03:51:24;97604.56;;;11.06;100.00
75157;BME280;63736;50.076;8.198;2023-10-19T03:53:54;97598.22;;;11.07;100.00
75157;BME280;63736;50.076;8.198;2023-10-19T03:56:23;97598.41;;;11.05;100.00
75157;BME280;63736;50.076;8.198;2023-10-19T03:58:49;97594.88;;;11.05;100.00
75157;BME280;63736;50.076;8.198;2023-10-19T04:01:17;97584.19;;;11.05;100.00
75157;BME280;63736;50.076;8.198;2023-10-19T04:03:43;97581.34;;;11.06;100.00
75157;BME280;63736;50.076;8.198;2023-10-19T04:06:09;97575.00;;;11.07;100.00
75157;BME280;63736;50.076;8.198;2023-10-19T04:08:39;97574.19;;;11.07;100.00
75157;BME280;63736;50.076;8.198;2023-10-19T04:11:04;97570.50;;;11.08;100.00
75157;BME280;63736;50.076;8.198;2023-10-19T04:13:40;97574.00;;;11.08;100.00
75157;BME280;63736;50.076;8.198;2023-10-19T04:16:05;97569.47;;;11.09;100.00
75157;BME280;63736;50.076;8.198;2023-10-19T04:18:34;97572.13;;;11.09;100.00
75157;BME280;63736;50.076;8.198;2023-10-19T04:21:00;97571.13;;;11.10;100.00
75157;BME280;63736;50.076;8.198;2023-10-19T04:23:27;97574.66;;;11.11;100.00
75157;BME280;63736;50.076;8.198;2023-10-19T04:25:56;97571.78;;;11.12;100.00
75157;BME280;63736;50.076;8.198;2023-10-19T04:28:22;97567.25;;;11.13;100.00
75157;BME280;63736;50.076;8.198;2023-10-19T04:30:57;97567.25;;;11.13;100.00
75157;BME280;63736;50.076;8.198;2023-10-19T04:33:30;97567.06;;;11.14;100.00
75157;BME280;63736;50.076;8.198;2023-10-19T04:35:55;97573.28;;;11.15;100.00
75157;BME280;63736;50.076;8.198;2023-10-19T04:38:23;97567.75;;;11.16;100.00
75157;BME280;63736;50.076;8.198;2023-10-19T04:40:48;97561.41;;;11.17;100.00
75157;BME280;63736;50.076;8.198;2023-10-19T04:43:13;97558.88;;;11.16;100.00
75157;BME280;63736;50.076;8.198;2023-10-19T04:45:40;97564.22;;;11.16;100.00
75157;BME280;63736;50.076;8.198;2023-10-19T04:48:05;97582.78;;;11.17;100.00
75157;BME280;63736;50.076;8.198;2023-10-19T04:50:31;97580.72;;;11.19;100.00
75157;BME280;63736;50.076;8.198;2023-10-19T04:52:56;97564.50;;;11.21;100.00
75157;BME280;63736;50.076;8.198;2023-10-19T04:55:21;97561.50;;;11.24;100.00
75157;BME280;63736;50.076;8.198;2023-10-19T04:57:47;97567.47;;;11.26;100.00
75157;BME280;63736;50.076;8.198;2023-10-19T05:00:13;97566.47;;;11.27;100.00
75157;BME280;63736;50.076;8.198;2023-10-19T05:02:39;97566.28;;;11.29;100.00
75157;BME280;63736;50.076;8.198;2023-10-19T05:05:05;97561.59;;;11.31;100.00
75157;BME280;63736;50.076;8.198;2023-10-19T05:07:30;97569.41;;;11.32;100.00
75157;BME280;63736;50.076;8.198;2023-10-19T05:09:55;97569.41;;;11.32;100.00
75157;BME280;63736;50.076;8.198;2023-10-19T05:12:21;97562.06;;;11.34;100.00
75157;BME280;63736;50.076;8.198;2023-10-19T05:14:46;97567.41;;;11.34;100.00
75157;BME280;63736;50.076;8.198;2023-10-19T05:17:12;97570.91;;;11.35;100.00
75157;BME280;63736;50.076;8.198;2023-10-19T05:19:38;97572.75;;;11.34;100.00
75157;BME280;63736;50.076;8.198;2023-10-19T05:22:08;97573.38;;;11.36;100.00
75157;BME280;63736;50.076;8.198;2023-10-19T05:24:34;97568.03;;;11.36;100.00
75157;BME280;63736;50.076;8.198;2023-10-19T05:27:00;97572.19;;;11.39;100.00
75157;BME280;63736;50.076;8.198;2023-10-19T05:29:25;97573.03;;;11.39;100.00
75157;BME280;63736;50.076;8.198;2023-10-19T05:31:51;97563.16;;;11.40;100.00
75157;BME280;63736;50.076;8.198;2023-10-19T05:34:25;97559.50;;;11.41;100.00
75157;BME280;63736;50.076;8.198;2023-10-19T05:36:52;97568.31;;;11.41;100.00
75157;BME280;63736;50.076;8.198;2023-10-19T05:39:18;97560.50;;;11.40;100.00
75157;BME280;63736;50.076;8.198;2023-10-19T05:41:43;97566.50;;;11.42;100.00
75157;BME280;63736;50.076;8.198;2023-10-19T05:44:09;97564.84;;;11.41;100.00
75157;BME280;63736;50.076;8.198;2023-10-19T05:46:34;97560.50;;;11.40;100.00
75157;BME280;63736;50.076;8.198;2023-10-19T05:48:59;97553.31;;;11.40;100.00
75157;BME280;63736;50.076;8.198;2023-10-19T05:51:28;97564.66;;;11.43;100.00
75157;BME280;63736;50.076;8.198;2023-10-19T05:53:54;97572.66;;;11.43;100.00
75157;BME280;63736;50.076;8.198;2023-10-19T05:56:26;97576.19;;;11.43;100.00
75157;BME280;63736;50.076;8.198;2023-10-19T05:58:51;97563.81;;;11.42;100.00
75157;BME280;63736;50.076;8.198;2023-10-19T06:01:19;97567.31;;;11.43;100.00
75157;BME280;63736;50.076;8.198;2023-10-19T06:03:44;97562.16;;;11.41;100.00
75157;BME280;63736;50.076;8.198;2023-10-19T06:06:10;97561.97;;;11.43;100.00
75157;BME280;63736;50.076;8.198;2023-10-19T06:08:35;97554.13;;;11.41;100.00
75157;BME280;63736;50.076;8.198;2023-10-19T06:11:01;97557.47;;;11.43;100.00
75157;BME280;63736;50.076;8.198;2023-10-19T06:13:26;97558.91;;;11.46;100.00
75157;BME280;63736;50.076;8.198;2023-10-19T06:15:51;97566.13;;;11.45;100.00
75157;BME280;63736;50.076;8.198;2023-10-19T06:18:16;97556.25;;;11.46;100.00
75157;BME280;63736;50.076;8.198;2023-10-19T06:20:45;97562.25;;;11.48;100.00
75157;BME280;63736;50.076;8.198;2023-10-19T06:23:10;97578.28;;;11.48;100.00
75157;BME280;63736;50.076;8.198;2023-10-19T06:25:37;97570.94;;;11.50;100.00
75157;BME280;63736;50.076;8.198;2023-10-19T06:28:03;97566.22;;;11.52;100.00
75157;BME280;63736;50.076;8.198;2023-10-19T06:30:29;97569.56;;;11.54;100.00
75157;BME280;63736;50.076;8.198;2023-10-19T06:32:56;97583.75;;;11.54;100.00
75157;BME280;63736;50.076;8.198;2023-10-19T06:35:25;97576.19;;;11.58;100.00
75157;BME280;63736;50.076;8.198;2023-10-19T06:37:52;97570.66;;;11.60;100.00
75157;BME280;63736;50.076;8.198;2023-10-19T06:40:18;97579.13;;;11.63;100.00
75157;BME280;63736;50.076;8.198;2023-10-19T06:42:44;97579.78;;;11.65;100.00
75157;BME280;63736;50.076;8.198;2023-10-19T06:45:13;97571.59;;;11.67;100.00
75157;BME280;63736;50.076;8.198;2023-10-19T06:47:45;97569.38;;;11.70;100.00
75157;BME280;63736;50.076;8.198;2023-10-19T06:50:16;97570.00;;;11.72;100.00
75157;BME280;63736;50.076;8.198;2023-10-19T06:52:44;97570.00;;;11.72;100.00
75157;BME280;63736;50.076;8.198;2023-10-19T06:55:10;97570.84;;;11.73;100.00
75157;BME280;63736;50.076;8.198;2023-10-19T06:57:44;97583.19;;;11.74;100.00
75157;BME280;63736;50.076;8.198;2023-10-19T07:00:11;97579.50;;;11.75;100.00
75157;BME280;63736;50.076;8.198;2023-10-19T07:02:40;97574.97;;;11.76;100.00
75157;BME280;63736;50.076;8.198;2023-10-19T07:05:07;97581.38;;;11.74;100.00
75157;BME280;63736;50.076;8.198;2023-10-19T07:07:35;97579.50;;;11.75;100.00
75157;BME280;63736;50.076;8.198;2023-10-19T07:10:01;97575.81;;;11.76;100.00
75157;BME280;63736;50.076;8.198;2023-10-19T07:12:28;97578.97;;;11.80;100.00
75157;BME280;63736;50.076;8.198;2023-10-19T07:14:53;97579.59;;;11.82;100.00
75157;BME280;63736;50.076;8.198;2023-10-19T07:17:19;97572.22;;;11.84;100.00
75157;BME280;63736;50.076;8.198;2023-10-19T07:19:44;97570.38;;;11.84;100.00
75157;BME280;63736;50.076;8.198;2023-10-19T07:22:11;97563.00;;;11.86;100.00
75157;BME280;63736;50.076;8.198;2023-10-19T07:24:37;97561.16;;;11.87;100.00
75157;BME280;63736;50.076;8.198;2023-10-19T07:27:03;97557.47;;;11.88;100.00
75157;BME280;63736;50.076;8.198;2023-10-19T07:29:31;97567.34;;;11.87;100.00
75157;BME280;63736;50.076;8.198;2023-10-19T07:31:56;97569.63;;;11.90;100.00
75157;BME280;63736;50.076;8.198;2023-10-19T07:34:23;97563.09;;;11.93;100.00
75157;BME280;63736;50.076;8.198;2023-10-19T07:36:53;97573.28;;;11.98;100.00
75157;BME280;63736;50.076;8.198;2023-10-19T07:39:19;97569.56;;;11.99;100.00
75157;BME280;63736;50.076;8.198;2023-10-19T07:41:45;97572.06;;;12.00;100.00
75157;BME280;63736;50.076;8.198;2023-10-19T07:44:11;97576.38;;;12.01;100.00
75157;BME280;63736;50.076;8.198;2023-10-19T07:46:37;97580.53;;;12.04;100.00
75157;BME280;63736;50.076;8.198;2023-10-19T07:49:02;97578.50;;;12.06;100.00
75157;BME280;63736;50.076;8.198;2023-10-19T07:51:28;97580.81;;;12.09;100.00
75157;BME280;63736;50.076;8.198;2023-10-19T07:53:55;97586.44;;;12.14;100.00
75157;BME280;63736;50.076;8.198;2023-10-19T07:56:20;97576.00;;;12.19;100.00
75157;BME280;63736;50.076;8.198;2023-10-19T07:58:46;97568.63;;;12.21;100.00
75157;BME280;63736;50.076;8.198;2023-10-19T08:01:11;97565.75;;;12.23;100.00
75157;BME280;63736;50.076;8.198;2023-10-19T08:03:37;97562.06;;;12.24;100.00
75157;BME280;63736;50.076;8.198;2023-10-19T08:06:02;97570.56;;;12.28;100.00
75157;BME280;63736;50.076;8.198;2023-10-19T08:08:30;97559.47;;;12.31;100.00
75157;BME280;63736;50.076;8.198;2023-10-19T08:10:59;97557.03;;;12.36;100.00
75157;BME280;63736;50.076;8.198;2023-10-19T08:13:25;97555.25;;;12.43;100.00
75157;BME280;63736;50.076;8.198;2023-10-19T08:15:51;97548.31;;;12.49;100.00
75157;BME280;63736;50.076;8.198;2023-10-19T08:18:17;97546.53;;;12.56;100.00
75157;BME280;63736;50.076;8.198;2023-10-19T08:20:43;97556.28;;;12.64;100.00
75157;BME280;63736;50.076;8.198;2023-10-19T08:23:12;97564.22;;;12.72;100.00
75157;BME280;63736;50.076;8.198;2023-10-19T08:25:38;97565.34;;;12.84;100.00
75157;BME280;63736;50.076;8.198;2023-10-19T08:28:04;97563.19;;;12.95;100.00
75157;BME280;63736;50.076;8.198;2023-10-19T08:30:31;97563.69;;;13.05;100.00
75157;BME280;63736;50.076;8.198;2023-10-19T08:32:58;97572.22;;;13.15;100.00
75157;BME280;63736;50.076;8.198;2023-10-19T08:35:23;97571.25;;;13.23;100.00
75157;BME280;63736;50.076;8.198;2023-10-19T08:37:56;97567.16;;;13.27;100.00
75157;BME280;63736;50.076;8.198;2023-10-19T08:40:25;97567.59;;;13.31;100.00
75157;BME280;63736;50.076;8.198;2023-10-19T08:42:52;97545.41;;;13.37;100.00
75157;BME280;63736;50.076;8.198;2023-10-19T08:45:18;97536.56;;;13.43;100.00
75157;BME280;63736;50.076;8.198;2023-10-19T08:50:14;97533.81;;;13.65;100.00
75157;BME280;63736;50.076;8.198;2023-10-19T08:52:42;97530.97;;;13.73;100.00
75157;BME280;63736;50.076;8.198;2023-10-19T08:55:08;97531.16;;;13.71;100.00
75157;BME280;63736;50.076;8.198;2023-10-19T08:57:36;97530.97;;;13.73;100.00
75157;BME280;63736;50.076;8.198;2023-10-19T09:00:01;97531.59;;;13.75;100.00
75157;BME280;63736;50.076;8.198;2023-10-19T09:02:31;97529.81;;;13.89;100.00
75157;BME280;63736;50.076;8.198;2023-10-19T09:04:58;97523.69;;;14.02;100.00
75157;BME280;63736;50.076;8.198;2023-10-19T09:07:25;97519.81;;;14.18;100.00
75157;BME280;63736;50.076;8.198;2023-10-19T09:09:56;97527.09;;;14.37;100.00
75157;BME280;63736;50.076;8.198;2023-10-19T09:12:22;97524.84;;;14.48;100.00
75157;BME280;63736;50.076;8.198;2023-10-19T09:14:48;97527.75;;;14.53;100.00
75157;BME280;63736;50.076;8.198;2023-10-19T09:17:15;97524.66;;;14.56;100.00
75157;BME280;63736;50.076;8.198;2023-10-19T09:19:41;97519.69;;;14.53;100.00
75157;BME280;63736;50.076;8.198;2023-10-19T09:22:08;97518.03;;;14.59;100.00
75157;BME280;63736;50.076;8.198;2023-10-19T09:24:47;97516.81;;;14.61;100.00
75157;BME280;63736;50.076;8.198;2023-10-19T09:27:17;97514.31;;;14.53;100.00
75157;BME280;63736;50.076;8.198;2023-10-19T09:29:43;97519.06;;;14.51;100.00
75157;BME280;63736;50.076;8.198;2023-10-19T09:32:08;97499.66;;;14.49;100.00
75157;BME280;63736;50.076;8.198;2023-10-19T09:34:34;97498.41;;;14.51;100.00
75157;BME280;63736;50.076;8.198;2023-10-19T09:37:01;97502.34;;;14.56;100.00
75157;BME280;63736;50.076;8.198;2023-10-19T09:39:31;97493.03;;;14.58;100.00
75157;BME280;63736;50.076;8.198;2023-10-19T09:42:07;97478.56;;;14.52;100.00
75157;BME280;63736;50.076;8.198;2023-10-19T09:44:54;97483.91;;;14.46;100.00
75157;BME280;63736;50.076;8.198;2023-10-19T09:47:30;97490.09;;;14.40;100.00
75157;BME280;63736;50.076;8.198;2023-10-19T09:50:00;97492.19;;;14.37;100.00
75157;BME280;63736;50.076;8.198;2023-10-19T09:52:26;97495.69;;;14.38;100.00
75157;BME280;63736;50.076;8.198;2023-10-19T09:54:59;97506.84;;;14.42;100.00
75157;BME280;63736;50.076;8.198;2023-10-19T09:57:34;97498.19;;;14.46;100.00
75157;BME280;63736;50.076;8.198;2023-10-19T10:00:02;97502.56;;;14.54;100.00
75157;BME280;63736;50.076;8.198;2023-10-19T10:02:37;97503.97;;;14.50;100.00
75157;BME280;63736;50.076;8.198;2023-10-19T10:05:03;97507.50;;;14.44;100.00
75157;BME280;63736;50.076;8.198;2023-10-19T10:07:29;97506.44;;;14.38;100.00
75157;BME280;63736;50.076;8.198;2023-10-19T10:09:56;97500.84;;;14.33;100.00
75157;BME280;63736;50.076;8.198;2023-10-19T10:12:23;97498.78;;;14.28;100.00
75157;BME280;63736;50.076;8.198;2023-10-19T10:14:59;97505.16;;;14.27;100.00
75157;BME280;63736;50.076;8.198;2023-10-19T10:17:26;97516.56;;;14.29;100.00
75157;BME280;63736;50.076;8.198;2023-10-19T10:19:56;97506.41;;;14.31;100.00
75157;BME280;63736;50.076;8.198;2023-10-19T10:22:44;97508.06;;;14.32;100.00
75157;BME280;63736;50.076;8.198;2023-10-19T10:25:28;97524.81;;;14.34;100.00
75157;BME280;63736;50.076;8.198;2023-10-19T10:27:54;97511.59;;;14.40;100.00
75157;BME280;63736;50.076;8.198;2023-10-19T10:30:20;97512.88;;;14.44;100.00
75157;BME280;63736;50.076;8.198;2023-10-19T10:32:47;97514.50;;;14.45;100.00
75157;BME280;63736;50.076;8.198;2023-10-19T10:38:07;97510.41;;;14.56;100.00
75157;BME280;63736;50.076;8.198;2023-10-19T10:40:44;97506.06;;;14.61;100.00
75157;BME280;63736;50.076;8.198;2023-10-19T10:43:09;97500.13;;;14.66;100.00
75157;BME280;63736;50.076;8.198;2023-10-19T10:45:36;97497.63;;;14.71;100.00
75157;BME280;63736;50.076;8.198;2023-10-19T10:48:01;97480.88;;;14.76;100.00
75157;BME280;63736;50.076;8.198;2023-10-19T10:50:27;97485.88;;;14.79;100.00
75157;BME280;63736;50.076;8.198;2023-10-19T10:52:55;97486.69;;;14.79;100.00
75157;BME280;63736;50.076;8.198;2023-10-19T10:55:23;97491.66;;;14.89;100.00
75157;BME280;63736;50.076;8.198;2023-10-19T10:57:54;97478.41;;;15.01;100.00
75157;BME280;63736;50.076;8.198;2023-10-19T11:00:19;97481.69;;;15.10;100.00
75157;BME280;63736;50.076;8.198;2023-10-19T11:02:46;97487.09;;;15.16;100.00
75157;BME280;63736;50.076;8.198;2023-10-19T11:05:14;97492.03;;;15.26;100.00
75157;BME280;63736;50.076;8.198;2023-10-19T11:07:40;97487.03;;;15.36;100.00
75157;BME280;63736;50.076;8.198;2023-10-19T11:10:07;97482.28;;;15.39;100.00
75157;BME280;63736;50.076;8.198;2023-10-19T11:12:35;97479.59;;;15.39;100.00
75157;BME280;63736;50.076;8.198;2023-10-19T11:15:01;97488.06;;;15.35;100.00
75157;BME280;63736;50.076;8.198;2023-10-19T11:17:42;97479.78;;;15.37;100.00
75157;BME280;63736;50.076;8.198;2023-10-19T11:20:08;97478.13;;;15.43;100.00
75157;BME280;63736;50.076;8.198;2023-10-19T11:22:47;97488.69;;;15.44;100.00
75157;BME280;63736;50.076;8.198;2023-10-19T11:25:20;97472.53;;;15.44;100.00
75157;BME280;63736;50.076;8.198;2023-10-19T11:27:46;97473.19;;;15.46;100.00
75157;BME280;63736;50.076;8.198;2023-10-19T11:30:12;97464.03;;;15.47;100.00
75157;BME280;63736;50.076;8.198;2023-10-19T11:32:38;97461.53;;;15.52;100.00
75157;BME280;63736;50.076;8.198;2023-10-19T11:35:04;97461.13;;;15.56;100.00
75157;BME280;63736;50.076;8.198;2023-10-19T11:37:48;97458.63;;;15.61;100.00
75157;BME280;63736;50.076;8.198;2023-10-19T11:40:14;97452.59;;;15.65;100.00
75157;BME280;63736;50.076;8.198;2023-10-19T11:42:40;97441.00;;;15.72;100.00
75157;BME280;63736;50.076;8.198;2023-10-19T11:45:06;97437.44;;;15.78;100.00
75157;BME280;63736;50.076;8.198;2023-10-19T11:47:31;97442.63;;;15.86;100.00
75157;BME280;63736;50.076;8.198;2023-10-19T11:49:57;97447.34;;;15.97;100.00
75157;BME280;63736;50.076;8.198;2023-10-19T11:52:22;97435.44;;;16.12;100.00
75157;BME280;63736;50.076;8.198;2023-10-19T11:54:48;97435.56;;;16.24;100.00
75157;BME280;63736;50.076;8.198;2023-10-19T11:57:13;97437.59;;;16.35;100.00
75157;BME280;63736;50.076;8.198;2023-10-19T11:59:38;97427.56;;;16.42;100.00
75157;BME280;63736;50.076;8.198;2023-10-19T12:02:06;97433.81;;;16.43;100.00
75157;BME280;63736;50.076;8.198;2023-10-19T12:04:32;97428.19;;;16.44;100.00
75157;BME280;63736;50.076;8.198;2023-10-19T12:07:01;97420.69;;;16.46;100.00
75157;BME280;63736;50.076;8.198;2023-10-19T12:09:26;97421.47;;;16.54;100.00
75157;BME280;63736;50.076;8.198;2023-10-19T12:11:53;97422.47;;;16.59;100.00
75157;BME280;63736;50.076;8.198;2023-10-19T12:14:19;97415.38;;;16.65;100.00
75157;BME280;63736;50.076;8.198;2023-10-19T12:16:46;97420.09;;;16.69;100.00
75157;BME280;63736;50.076;8.198;2023-10-19T12:19:11;97410.16;;;16.70;100.00
75157;BME280;63736;50.076;8.198;2023-10-19T12:21:36;97414.50;;;16.71;100.00
75157;BME280;63736;50.076;8.198;2023-10-19T12:24:07;97410.97;;;16.71;100.00
75157;BME280;63736;50.076;8.198;2023-10-19T12:26:33;97409.78;;;16.66;100.00
75157;BME280;63736;50.076;8.198;2023-10-19T12:28:58;97407.13;;;16.60;100.00
75157;BME280;63736;50.076;8.198;2023-10-19T12:31:23;97409.50;;;16.49;100.00
75157;BME280;63736;50.076;8.198;2023-10-19T12:33:49;97414.94;;;16.43;100.00
75157;BME280;63736;50.076;8.198;2023-10-19T12:36:14;97412.72;;;16.33;100.00
75157;BME280;63736;50.076;8.198;2023-10-19T12:38:55;97406.56;;;16.26;100.00
75157;BME280;63736;50.076;8.198;2023-10-19T12:41:21;97401.41;;;16.17;100.00
75157;BME280;63736;50.076;8.198;2023-10-19T12:43:47;97396.09;;;16.11;100.00
75157;BME280;63736;50.076;8.198;2023-10-19T12:46:13;97396.94;;;16.05;100.00
75157;BME280;63736;50.076;8.198;2023-10-19T12:48:40;97400.28;;;16.00;100.00
75157;BME280;63736;50.076;8.198;2023-10-19T12:51:05;97388.31;;;15.96;100.00
75157;BME280;63736;50.076;8.198;2023-10-19T12:53:36;97399.50;;;15.93;100.00
75157;BME280;63736;50.076;8.198;2023-10-19T12:56:03;97394.78;;;15.88;100.00
75157;BME280;63736;50.076;8.198;2023-10-19T12:58:29;97395.81;;;15.87;100.00
75157;BME280;63736;50.076;8.198;2023-10-19T13:00:54;97387.06;;;15.92;100.00
75157;BME280;63736;50.076;8.198;2023-10-19T13:03:21;97385.81;;;15.94;100.00